createdAt,value
2018-09-19T00:00:39.929Z,4.43
2018-09-19T00:03:10.478Z,4.47
2018-09-19T00:05:42.003Z,4.07
2018-09-19T00:08:12.131Z,4.40
2018-09-19T00:10:41.788Z,4.60
2018-09-19T00:13:11.973Z,4.80
2018-09-19T00:15:41.478Z,4.90
2018-09-19T00:18:10.991Z,4.87
2018-09-19T00:20:40.390Z,4.97
2018-09-19T00:23:10.762Z,4.67
2018-09-19T00:25:40.078Z,4.90
2018-09-19T00:28:09.604Z,4.53
2018-09-19T00:30:40.119Z,4.80
2018-09-19T00:33:12.390Z,4.27
2018-09-19T00:35:41.912Z,4.83
2018-09-19T00:38:13.732Z,4.80
2018-09-19T00:40:43.499Z,5.03
2018-09-19T00:43:13.953Z,4.70
2018-09-19T00:45:43.421Z,5.27
2018-09-19T00:48:12.846Z,4.70
2018-09-19T00:50:42.325Z,4.43
2018-09-19T00:53:12.437Z,4.93
2018-09-19T00:55:43.522Z,4.70
2018-09-19T00:58:13.989Z,5.23
2018-09-19T01:00:46.691Z,5.30
2018-09-19T01:03:16.125Z,5.17
2018-09-19T01:05:45.908Z,5.20
2018-09-19T01:08:15.899Z,5.00
2018-09-19T01:10:45.889Z,5.00
2018-09-19T01:13:15.648Z,5.03
2018-09-19T01:15:51.573Z,5.87
2018-09-19T01:18:21.487Z,7.87
2018-09-19T01:20:54.402Z,6.53
2018-09-19T01:23:25.358Z,6.80
2018-09-19T01:25:55.481Z,5.37
2018-09-19T01:28:28.151Z,5.70
2018-09-19T01:30:58.073Z,5.60
2018-09-19T01:33:29.317Z,5.03
2018-09-19T01:35:58.750Z,5.40
2018-09-19T01:38:45.958Z,5.87
2018-09-19T01:41:18.093Z,6.10
2018-09-19T01:43:48.094Z,5.33
2018-09-19T01:46:18.491Z,5.30
2018-09-19T01:48:49.480Z,5.13
2018-09-19T01:51:20.012Z,6.23
2018-09-19T01:53:50.034Z,5.13
2018-09-19T01:56:20.366Z,5.90
2018-09-19T01:58:49.887Z,5.57
2018-09-19T02:01:19.269Z,5.90
2018-09-19T02:03:50.334Z,6.10
2018-09-19T02:06:22.662Z,5.93
2018-09-19T02:08:52.173Z,5.57
2018-09-19T02:11:21.678Z,6.33
2018-09-19T02:13:51.144Z,6.00
2018-09-19T02:16:21.215Z,7.07
2018-09-19T02:18:51.054Z,6.60
2018-09-19T02:21:20.925Z,6.63
2018-09-19T02:23:50.433Z,6.53
2018-09-19T02:26:36.748Z,6.30
2018-09-19T02:29:13.275Z,5.57
2018-09-19T02:31:42.592Z,6.27
2018-09-19T02:34:11.852Z,6.40
2018-09-19T02:36:42.432Z,6.33
2018-09-19T02:39:12.384Z,7.37
2018-09-19T02:41:41.816Z,6.57
2018-09-19T02:44:11.228Z,6.60
2018-09-19T02:46:42.280Z,6.07
2018-09-19T02:49:11.836Z,6.10
2018-09-19T02:51:41.590Z,6.40
2018-09-19T02:54:11.489Z,6.40
2018-09-19T02:56:40.892Z,6.03
2018-09-19T02:59:10.222Z,5.97
2018-09-19T03:01:39.561Z,5.67
2018-09-19T03:04:11.976Z,5.83
2018-09-19T03:06:41.429Z,5.80
2018-09-19T03:09:11.238Z,5.93
2018-09-19T03:14:37.337Z,5.63
2018-09-19T03:17:07.363Z,6.43
2018-09-19T03:19:38.000Z,6.47
2018-09-19T03:22:08.098Z,6.50
2018-09-19T03:24:37.474Z,7.10
2018-09-19T03:27:07.525Z,6.73
2018-09-19T03:29:37.089Z,6.43
2018-09-19T03:32:06.669Z,6.90
2018-09-19T03:34:36.679Z,6.23
2018-09-19T03:37:06.096Z,6.70
2018-09-19T03:39:35.429Z,7.63
2018-09-19T03:42:05.776Z,6.33
2018-09-19T03:44:35.194Z,6.97
2018-09-19T03:47:04.873Z,6.80
2018-09-19T03:49:34.198Z,7.07
2018-09-19T03:52:03.775Z,7.00
2018-09-19T03:54:33.552Z,6.80
2018-09-19T03:57:02.886Z,6.97
2018-09-19T03:59:32.253Z,6.70
2018-09-19T04:02:01.593Z,7.20
2018-09-19T04:04:30.951Z,6.60
2018-09-19T04:07:00.331Z,7.70
2018-09-19T04:09:29.680Z,7.07
2018-09-19T04:11:59.306Z,6.93
2018-09-19T04:14:28.922Z,7.07
2018-09-19T04:16:58.315Z,6.73
2018-09-19T04:19:29.173Z,8.37
2018-09-19T04:21:58.563Z,7.00
2018-09-19T04:24:27.893Z,7.87
2018-09-19T04:26:57.327Z,8.00
2018-09-19T04:29:26.690Z,9.23
2018-09-19T04:31:57.966Z,7.60
2018-09-19T04:34:29.919Z,7.40
2018-09-19T04:36:59.278Z,7.70
2018-09-19T04:39:28.624Z,7.37
2018-09-19T04:41:58.150Z,7.40
2018-09-19T04:44:27.626Z,7.90
2018-09-19T04:46:58.890Z,7.83
2018-09-19T04:49:28.896Z,8.20
2018-09-19T04:51:58.535Z,7.67
2018-09-19T04:54:27.829Z,7.47
2018-09-19T04:56:58.226Z,7.70
2018-09-19T04:59:27.512Z,8.30
2018-09-19T05:01:56.925Z,7.93
2018-09-19T05:04:27.662Z,7.80
2018-09-19T05:06:57.053Z,8.27
2018-09-19T05:09:27.637Z,8.50
2018-09-19T05:11:57.081Z,8.13
2018-09-19T05:14:26.523Z,8.17
2018-09-19T05:16:55.937Z,7.63
2018-09-19T05:19:25.363Z,8.37
2018-09-19T05:21:55.325Z,8.03
2018-09-19T05:24:33.628Z,7.50
2018-09-19T05:27:02.968Z,7.77
2018-09-19T05:29:32.390Z,7.93
2018-09-19T05:32:01.875Z,8.43
2018-09-19T05:34:32.498Z,7.87
2018-09-19T05:37:01.899Z,9.13
2018-09-19T05:39:33.631Z,8.03
2018-09-19T05:42:04.497Z,8.30
2018-09-19T05:44:35.116Z,8.90
2018-09-19T05:47:04.628Z,7.90
2018-09-19T05:49:34.441Z,8.57
2018-09-19T05:52:04.267Z,8.40
2018-09-19T05:54:33.899Z,8.83
2018-09-19T05:57:04.240Z,8.57
2018-09-19T05:59:34.404Z,8.50
2018-09-19T06:02:04.238Z,8.90
2018-09-19T06:04:33.593Z,8.73
2018-09-19T06:07:04.142Z,8.67
2018-09-19T06:09:33.461Z,9.20
2018-09-19T06:12:02.790Z,9.37
2018-09-19T06:14:32.113Z,10.20
2018-09-19T06:17:01.396Z,9.03
2018-09-19T06:19:30.760Z,9.00
2018-09-19T06:22:00.190Z,9.70
2018-09-19T06:24:30.456Z,10.13
2018-09-19T06:26:59.892Z,9.83
2018-09-19T06:29:29.618Z,9.13
2018-09-19T06:31:59.079Z,8.87
2018-09-19T06:34:29.581Z,9.93
2018-09-19T06:36:59.003Z,9.47
2018-09-19T06:39:30.607Z,9.73
2018-09-19T06:42:00.778Z,9.80
2018-09-19T06:44:30.116Z,9.73
2018-09-19T06:47:00.106Z,10.07
2018-09-19T06:49:31.094Z,10.03
2018-09-19T06:52:01.459Z,9.97
2018-09-19T06:54:31.684Z,9.90
2018-09-19T06:57:01.156Z,10.50
2018-09-19T06:59:30.529Z,9.40
2018-09-19T07:01:59.997Z,9.83
2018-09-19T07:04:29.851Z,9.30
2018-09-19T07:07:00.379Z,9.93
2018-09-19T07:09:29.780Z,8.77
2018-09-19T07:11:59.189Z,9.50
2018-09-19T07:14:28.729Z,9.10
2018-09-19T07:16:58.204Z,9.40
2018-09-19T07:19:27.817Z,9.50
2018-09-19T07:21:58.030Z,9.53
2018-09-19T07:24:28.768Z,10.07
2018-09-19T07:26:58.301Z,9.60
2018-09-19T07:29:27.775Z,9.30
2018-09-19T07:31:57.923Z,10.03
2018-09-19T07:34:27.411Z,9.90
2018-09-19T07:36:56.958Z,9.67
2018-09-19T07:39:26.469Z,10.60
2018-09-19T07:41:56.017Z,10.27
2018-09-19T07:44:25.540Z,11.20
2018-09-19T07:46:55.081Z,12.23
2018-09-19T07:49:24.685Z,10.27
2018-09-19T07:51:54.250Z,10.17
2018-09-19T07:54:24.707Z,10.40
2018-09-19T07:56:54.107Z,10.10
2018-09-19T07:59:23.788Z,10.07
2018-09-19T08:01:53.053Z,10.60
2018-09-19T08:04:22.601Z,9.17
2018-09-19T08:06:51.921Z,9.33
2018-09-19T08:09:21.616Z,9.77
2018-09-19T08:11:51.689Z,10.10
2018-09-19T08:14:21.122Z,10.17
2018-09-19T08:16:50.727Z,9.63
2018-09-19T08:19:21.046Z,9.53
2018-09-19T08:21:50.750Z,10.40
2018-09-19T08:24:20.196Z,9.47
2018-09-19T08:26:52.534Z,8.83
2018-09-19T08:29:21.809Z,9.13
2018-09-19T08:31:51.653Z,10.07
2018-09-19T08:34:20.975Z,10.10
2018-09-19T08:36:51.628Z,9.73
2018-09-19T08:39:21.585Z,9.40
2018-09-19T08:41:52.040Z,9.43
2018-09-19T08:44:22.182Z,8.67
2018-09-19T08:46:52.638Z,9.03
2018-09-19T08:49:22.378Z,7.87
2018-09-19T08:51:52.017Z,8.73
2018-09-19T08:54:21.296Z,8.50
2018-09-19T08:56:50.717Z,8.50
2018-09-19T08:59:20.158Z,8.00
2018-09-19T09:01:49.857Z,7.43
2018-09-19T09:04:20.231Z,7.30
2018-09-19T09:06:52.238Z,7.43
2018-09-19T09:09:22.624Z,7.53
2018-09-19T09:11:52.180Z,7.53
2018-09-19T09:14:21.561Z,6.80
2018-09-19T09:16:51.083Z,7.20
2018-09-19T09:19:20.461Z,9.90
2018-09-19T09:21:51.147Z,7.40
2018-09-19T09:24:21.262Z,6.27
2018-09-19T09:26:50.595Z,7.23
2018-09-19T09:29:19.977Z,7.20
2018-09-19T09:31:49.600Z,6.80
2018-09-19T09:34:18.974Z,7.47
2018-09-19T09:36:48.282Z,8.17
2018-09-19T09:39:17.669Z,6.97
2018-09-19T09:41:46.993Z,6.00
2018-09-19T09:44:16.358Z,6.77
2018-09-19T09:46:45.937Z,6.23
2018-09-19T09:49:15.327Z,5.87
2018-09-19T09:51:45.640Z,5.67
2018-09-19T09:54:17.010Z,5.30
2018-09-19T09:56:48.740Z,4.83
2018-09-19T09:59:18.154Z,4.23
2018-09-19T10:01:47.448Z,4.57
2018-09-19T10:04:17.634Z,4.43
2018-09-19T10:06:47.057Z,4.70
2018-09-19T10:09:17.382Z,4.20
2018-09-19T10:11:46.840Z,4.58
2018-09-19T10:14:16.900Z,4.20
2018-09-19T10:16:46.348Z,4.78
2018-09-19T10:19:16.365Z,4.50
2018-09-19T10:21:45.704Z,4.65
2018-09-19T10:24:20.242Z,4.42
2018-09-19T10:26:50.186Z,4.17
2018-09-19T10:29:20.101Z,3.67
2018-09-19T10:31:49.896Z,3.92
2018-09-19T10:34:19.278Z,3.83
2018-09-19T10:36:48.558Z,4.03
2018-09-19T10:39:17.933Z,5.20
2018-09-19T10:41:47.246Z,5.70
2018-09-19T10:44:16.532Z,3.45
2018-09-19T10:46:46.573Z,3.75
2018-09-19T10:49:16.386Z,4.33
2018-09-19T10:51:46.113Z,4.10
2018-09-19T10:54:15.547Z,3.72
2018-09-19T10:56:45.415Z,3.33
2018-09-19T10:59:15.136Z,3.70
2018-09-19T11:01:45.891Z,3.92
2018-09-19T11:04:15.179Z,3.47
2018-09-19T11:06:45.571Z,3.95
2018-09-19T11:09:15.722Z,3.85
2018-09-19T11:11:45.041Z,4.10
2018-09-19T11:14:15.240Z,4.10
2018-09-19T11:16:44.748Z,4.20
2018-09-19T11:19:14.709Z,4.25
2018-09-19T11:21:44.067Z,3.77
2018-09-19T11:24:13.671Z,3.80
2018-09-19T11:26:43.096Z,3.77
2018-09-19T11:29:12.482Z,3.75
2018-09-19T11:31:42.799Z,3.42
2018-09-19T11:34:12.301Z,3.70
2018-09-19T11:36:41.874Z,3.70
2018-09-19T11:39:12.780Z,3.58
2018-09-19T11:41:42.421Z,3.98
2018-09-19T11:44:11.857Z,3.52
2018-09-19T11:46:41.246Z,4.10
2018-09-19T11:49:10.870Z,3.87
2018-09-19T11:51:40.238Z,3.35
2018-09-19T11:54:09.652Z,3.70
2018-09-19T11:56:39.794Z,3.47
2018-09-19T11:59:10.069Z,3.50
2018-09-19T12:01:39.555Z,3.62
2018-09-19T12:04:10.291Z,3.92
2018-09-19T12:06:39.724Z,4.00
2018-09-19T12:09:11.048Z,2.98
2018-09-19T12:11:40.485Z,3.60
2018-09-19T12:14:11.718Z,3.75
2018-09-19T12:16:41.347Z,3.55
2018-09-19T12:19:10.615Z,3.67
2018-09-19T12:21:39.983Z,3.62
2018-09-19T12:24:10.795Z,3.08
2018-09-19T12:26:40.393Z,3.85
2018-09-19T12:29:09.652Z,3.42
2018-09-19T12:31:39.117Z,3.30
2018-09-19T12:34:09.105Z,3.72
2018-09-19T12:36:38.546Z,3.50
2018-09-19T12:39:10.834Z,3.62
2018-09-19T12:41:41.149Z,4.00
2018-09-19T12:44:12.094Z,3.87
2018-09-19T12:46:41.452Z,3.50
2018-09-19T12:49:12.594Z,3.67
2018-09-19T12:51:48.648Z,3.62
2018-09-19T12:54:18.045Z,3.40
2018-09-19T12:56:49.942Z,3.55
2018-09-19T12:59:20.339Z,4.05
2018-09-19T13:01:49.697Z,3.72
2018-09-19T13:04:19.108Z,3.00
2018-09-19T13:06:49.073Z,3.85
2018-09-19T13:09:19.181Z,3.58
2018-09-19T13:11:48.680Z,4.00
2018-09-19T13:14:17.983Z,3.50
2018-09-19T13:16:47.806Z,3.40
2018-09-19T13:19:19.252Z,3.42
2018-09-19T13:21:49.698Z,3.90
2018-09-19T13:24:19.605Z,7.55
2018-09-19T13:26:49.946Z,5.25
2018-09-19T13:29:19.329Z,4.05
2018-09-19T13:31:49.493Z,3.60
2018-09-19T13:34:18.901Z,6.65
2018-09-19T13:36:49.480Z,9.08
2018-09-19T13:39:19.415Z,4.35
2018-09-19T13:41:49.713Z,4.12
2018-09-19T13:44:19.880Z,3.42
2018-09-19T13:46:49.367Z,3.50
2018-09-19T13:49:29.165Z,4.12
2018-09-19T13:51:58.947Z,3.50
2018-09-19T13:54:29.221Z,3.95
2018-09-19T13:56:59.257Z,3.50
2018-09-19T13:59:29.466Z,3.40
2018-09-19T14:01:58.873Z,4.65
2018-09-19T14:04:28.428Z,3.95
2018-09-19T14:06:57.977Z,3.80
2018-09-19T14:09:27.282Z,4.42
2018-09-19T14:11:57.606Z,3.98
2018-09-19T14:14:27.526Z,3.52
2018-09-19T14:16:57.546Z,3.40
2018-09-19T14:19:26.978Z,3.85
2018-09-19T14:21:56.951Z,4.45
2018-09-19T14:24:26.336Z,4.33
2018-09-19T14:26:56.471Z,5.45
2018-09-19T14:29:25.875Z,4.20
2018-09-19T14:31:55.568Z,4.42
2018-09-19T14:34:26.203Z,3.70
2018-09-19T14:36:55.611Z,3.72
2018-09-19T14:39:25.627Z,3.55
2018-09-19T14:41:55.172Z,4.40
2018-09-19T14:44:25.621Z,3.92
2018-09-19T14:46:55.590Z,4.08
2018-09-19T14:49:25.384Z,3.45
2018-09-19T14:51:55.909Z,3.62
2018-09-19T14:54:25.663Z,4.20
2018-09-19T14:56:57.581Z,4.28
2018-09-19T14:59:27.737Z,3.90
2018-09-19T15:01:57.178Z,3.62
2018-09-19T15:04:26.500Z,4.28
2018-09-19T15:06:55.831Z,3.90
2018-09-19T15:09:25.568Z,3.60
2018-09-19T15:11:55.447Z,4.17
2018-09-19T15:14:25.576Z,5.25
2018-09-19T15:16:58.672Z,4.42
2018-09-19T15:19:29.303Z,4.22
2018-09-19T15:21:58.958Z,4.47
2018-09-19T15:24:31.232Z,3.67
2018-09-19T15:27:02.804Z,3.62
2018-09-19T15:29:32.327Z,3.60
2018-09-19T15:32:01.664Z,4.15
2018-09-19T15:34:31.636Z,3.65
2018-09-19T15:37:01.984Z,4.28
2018-09-19T15:39:31.775Z,4.17
2018-09-19T15:42:01.285Z,7.12
2018-09-19T15:44:31.203Z,4.12
2018-09-19T15:47:00.583Z,3.83
2018-09-19T15:49:29.983Z,3.98
2018-09-19T15:51:59.316Z,3.95
2018-09-19T15:54:28.689Z,3.90
2018-09-19T15:56:58.092Z,3.60
2018-09-19T15:59:28.384Z,3.75
2018-09-19T16:01:57.643Z,3.72
2018-09-19T16:04:27.180Z,3.45
2018-09-19T16:06:56.731Z,3.33
2018-09-19T16:09:29.291Z,4.03
2018-09-19T16:11:58.940Z,3.72
2018-09-19T16:14:28.338Z,3.52
2018-09-19T16:16:58.452Z,3.70
2018-09-19T16:19:28.780Z,3.72
2018-09-19T16:21:58.519Z,3.65
2018-09-19T16:24:27.917Z,3.15
2018-09-19T16:26:58.534Z,3.50
2018-09-19T16:29:28.289Z,3.72
2018-09-19T16:31:59.079Z,3.37
2018-09-19T16:34:29.767Z,4.53
2018-09-19T16:37:00.439Z,5.80
2018-09-19T16:39:30.209Z,3.50
2018-09-19T16:42:00.529Z,3.87
2018-09-19T16:44:30.040Z,3.50
2018-09-19T16:46:59.545Z,4.20
2018-09-19T16:49:29.626Z,3.95
2018-09-19T16:51:59.431Z,3.95
2018-09-19T16:54:30.855Z,4.53
2018-09-19T16:57:00.912Z,3.92
2018-09-19T16:59:30.792Z,3.52
2018-09-19T17:02:01.276Z,4.05
2018-09-19T17:04:31.742Z,3.37
2018-09-19T17:07:02.745Z,3.72
2018-09-19T17:09:32.214Z,3.22
2018-09-19T17:12:02.787Z,4.20
2018-09-19T17:14:32.291Z,4.00
2018-09-19T17:17:02.975Z,5.67
2018-09-19T17:19:32.335Z,4.80
2018-09-19T17:22:02.377Z,3.92
2018-09-19T17:24:31.905Z,3.60
2018-09-19T17:27:05.504Z,3.35
2018-09-19T17:29:35.125Z,3.50
2018-09-19T17:32:04.857Z,3.60
2018-09-19T17:34:36.970Z,3.70
2018-09-19T17:37:07.444Z,4.12
2018-09-19T17:39:37.007Z,6.85
2018-09-19T17:42:07.239Z,4.15
2018-09-19T17:44:37.071Z,3.70
2018-09-19T17:47:06.492Z,3.77
2018-09-19T17:49:36.880Z,4.12
2018-09-19T17:52:07.924Z,3.52
2018-09-19T17:54:37.837Z,4.05
2018-09-19T17:57:07.640Z,3.85
2018-09-19T17:59:38.709Z,3.60
2018-09-19T18:02:08.800Z,3.45
2018-09-19T18:04:38.507Z,4.10
2018-09-19T18:07:09.660Z,4.03
2018-09-19T18:09:39.258Z,4.20
2018-09-19T18:12:08.692Z,9.68
2018-09-19T18:14:38.192Z,4.75
2018-09-19T18:17:08.861Z,3.98
2018-09-19T18:19:39.255Z,4.53
2018-09-19T18:22:10.116Z,3.70
2018-09-19T18:24:39.598Z,4.37
2018-09-19T18:27:10.056Z,4.53
2018-09-19T18:29:40.691Z,4.70
2018-09-19T18:32:12.236Z,5.47
2018-09-19T18:34:41.595Z,5.47
2018-09-19T18:37:10.973Z,4.43
2018-09-19T18:39:42.254Z,10.40
2018-09-19T18:42:13.476Z,4.80
2018-09-19T18:44:42.984Z,4.07
2018-09-19T18:47:13.825Z,4.73
2018-09-19T18:49:43.352Z,7.40
2018-09-19T18:52:13.261Z,5.87
2018-09-19T18:54:43.526Z,5.23
2018-09-19T18:57:14.220Z,5.13
2018-09-19T18:59:44.031Z,4.73
2018-09-19T19:02:13.564Z,4.23
2018-09-19T19:04:43.640Z,4.27
2018-09-19T19:07:14.294Z,5.43
2018-09-19T19:09:44.972Z,5.13
2018-09-19T19:12:16.144Z,4.60
2018-09-19T19:14:45.820Z,4.07
2018-09-19T19:17:15.639Z,3.90
2018-09-19T19:19:45.300Z,4.40
2018-09-19T19:22:16.853Z,4.70
2018-09-19T19:24:47.168Z,4.20
2018-09-19T19:27:17.754Z,11.30
2018-09-19T19:29:47.294Z,9.53
2018-09-19T19:32:17.789Z,4.47
2018-09-19T19:34:49.188Z,4.87
2018-09-19T19:37:18.694Z,4.90
2018-09-19T19:39:49.833Z,4.90
2018-09-19T19:42:21.184Z,5.70
2018-09-19T19:44:51.502Z,5.17
2018-09-19T19:47:21.694Z,5.00
2018-09-19T19:49:51.252Z,5.47
2018-09-19T19:52:20.774Z,5.90
2018-09-19T19:54:51.505Z,5.50
2018-09-19T19:57:21.879Z,6.33
2018-09-19T19:59:54.584Z,5.77
2018-09-19T20:02:25.294Z,6.93
2018-09-19T20:04:54.808Z,8.37
2018-09-19T20:07:24.306Z,7.90
2018-09-19T20:09:54.946Z,6.13
2018-09-19T20:12:25.610Z,6.03
2018-09-19T20:14:55.251Z,6.93
2018-09-19T20:17:24.755Z,6.23
2018-09-19T20:19:54.840Z,5.73
2018-09-19T20:22:25.874Z,6.23
2018-09-19T20:24:55.539Z,6.17
2018-09-19T20:27:25.643Z,5.47
2018-09-19T20:29:55.257Z,5.57
2018-09-19T20:32:25.219Z,5.77
2018-09-19T20:34:54.650Z,5.67
2018-09-19T20:37:24.053Z,5.13
2018-09-19T20:39:53.368Z,5.20
2018-09-19T20:42:23.777Z,5.23
2018-09-19T20:44:53.539Z,6.40
2018-09-19T20:47:23.860Z,5.87
2018-09-19T20:49:53.266Z,4.67
2018-09-19T20:52:22.746Z,4.93
2018-09-19T20:54:52.885Z,5.23
2018-09-19T20:57:24.202Z,5.70
2018-09-19T20:59:54.761Z,5.07
2018-09-19T21:02:24.205Z,5.40
2018-09-19T21:04:54.809Z,5.10
2018-09-19T21:07:24.685Z,4.57
2018-09-19T21:09:56.462Z,5.40
2018-09-19T21:12:26.389Z,8.47
2018-09-19T21:14:55.942Z,5.43
2018-09-19T21:17:26.690Z,5.37
2018-09-19T21:19:58.170Z,5.80
2018-09-19T21:22:28.673Z,6.10
2018-09-19T21:24:58.535Z,5.30
2018-09-19T21:27:27.964Z,5.23
2018-09-19T21:29:57.351Z,5.57
2018-09-19T21:32:27.520Z,5.63
2018-09-19T21:34:57.120Z,5.07
2018-09-19T21:37:27.104Z,4.93
2018-09-19T21:39:56.510Z,4.60
2018-09-19T21:42:26.638Z,5.00
2018-09-19T21:44:56.046Z,4.93
2018-09-19T21:47:26.816Z,5.07
2018-09-19T21:49:56.438Z,5.23
2018-09-19T21:52:26.157Z,5.00
2018-09-19T21:54:55.818Z,4.23
2018-09-19T21:57:25.326Z,6.53
2018-09-19T21:59:54.868Z,4.93
2018-09-19T22:02:25.091Z,4.70
2018-09-19T22:04:54.628Z,5.30
2018-09-19T22:07:25.163Z,5.17
2018-09-19T22:10:00.524Z,5.27
2018-09-19T22:12:29.789Z,4.83
2018-09-19T22:14:59.232Z,5.10
2018-09-19T22:17:29.250Z,5.63
2018-09-19T22:19:58.580Z,5.07
2018-09-19T22:22:28.470Z,4.70
2018-09-19T22:24:57.906Z,4.80
2018-09-19T22:27:27.486Z,5.70
2018-09-19T22:29:57.295Z,4.73
2018-09-19T22:32:26.857Z,5.23
2018-09-19T22:34:56.237Z,4.57
2018-09-19T22:37:26.437Z,5.40
2018-09-19T22:39:55.689Z,5.37
2018-09-19T22:42:24.940Z,5.80
2018-09-19T22:45:01.356Z,4.77
2018-09-19T22:47:30.958Z,5.33
2018-09-19T22:50:00.357Z,4.83
2018-09-19T22:52:30.191Z,5.70
2018-09-19T22:54:59.845Z,5.37
2018-09-19T22:57:29.126Z,5.57
2018-09-19T22:59:59.756Z,5.30
2018-09-19T23:02:29.638Z,5.20
2018-09-19T23:04:58.972Z,5.50
2018-09-19T23:07:28.245Z,5.40
2018-09-19T23:09:58.363Z,5.23
2018-09-19T23:12:27.696Z,5.60
2018-09-19T23:14:56.963Z,4.97
2018-09-19T23:17:26.436Z,4.53
2018-09-19T23:19:55.900Z,5.40
2018-09-19T23:22:25.241Z,4.70
2018-09-19T23:24:54.655Z,4.83
2018-09-19T23:27:24.107Z,4.80
2018-09-19T23:29:53.510Z,4.40
2018-09-19T23:32:22.978Z,4.83
2018-09-19T23:34:52.379Z,4.50
2018-09-19T23:37:23.787Z,5.43
2018-09-19T23:39:53.605Z,4.73
2018-09-19T23:42:23.002Z,5.23
2018-09-19T23:44:52.424Z,4.70
2018-09-19T23:47:21.803Z,5.43
2018-09-19T23:49:51.076Z,4.63
2018-09-19T23:52:23.140Z,4.70
2018-09-19T23:54:54.592Z,4.23
2018-09-19T23:57:27.882Z,5.57
2018-09-19T23:59:57.478Z,5.30
